Time;durP1;ratioP1;P1;durP2;ratioP2;P2;SDS_P1;SDS_P2;PMS_P1;PMS_P2;Temp;Humidity;BMP_temperature;BMP_pressure;BME280_temperature;BME280_humidity;BME280_pressure;Samples;Min_cycle;Max_cycle;Signal;HPM_P1;HPM_P2
2023/04/19 00:01:19;;;;;;;12.00;11.00;;;;;;;;;;5070568;28;20410;-79
2023/04/19 00:03:45;;;;;;;11.73;10.82;;;;;;;;;;5108044;22;20423;-89
2023/04/19 00:06:13;;;;;;;11.10;10.20;;;;;;;;;;5070364;28;20436;-89
2023/04/19 00:08:40;;;;;;;11.77;10.88;;;;;;;;;;5071573;28;20374;-90
2023/04/19 00:11:06;;;;;;;11.40;10.43;;;;;;;;;;5076633;28;20866;-88
2023/04/19 00:13:32;;;;;;;11.30;10.40;;;;;;;;;;5090607;28;20382;-90
2023/04/19 00:15:58;;;;;;;11.77;10.88;;;;;;;;;;5079697;28;20376;-89
2023/04/19 00:18:24;;;;;;;12.00;11.05;;;;;;;;;;5087979;28;20731;-89
2023/04/19 00:20:50;;;;;;;12.43;11.43;;;;;;;;;;5083574;28;20424;-88
2023/04/19 00:23:16;;;;;;;12.73;11.63;;;;;;;;;;5075424;28;20384;-89
2023/04/19 00:25:42;;;;;;;11.73;10.82;;;;;;;;;;5073694;28;20406;-88
2023/04/19 00:28:08;;;;;;;13.82;12.73;;;;;;;;;;5074023;28;20452;-89
2023/04/19 00:30:34;;;;;;;12.55;11.65;;;;;;;;;;5073767;28;20376;-89
2023/04/19 00:33:00;;;;;;;12.15;11.15;;;;;;;;;;5073711;28;20382;-88
2023/04/19 00:35:26;;;;;;;12.70;11.67;;;;;;;;;;5073746;28;20376;-89
2023/04/19 00:37:52;;;;;;;12.55;11.55;;;;;;;;;;5073834;28;20475;-89
2023/04/19 00:40:18;;;;;;;13.05;12.00;;;;;;;;;;5073607;28;20379;-88
2023/04/19 00:42:44;;;;;;;12.05;11.13;;;;;;;;;;5072217;28;20453;-90
2023/04/19 00:45:11;;;;;;;15.43;14.00;;;;;;;;;;5073502;28;20379;-87
2023/04/19 00:47:37;;;;;;;11.60;10.70;;;;;;;;;;5072381;28;20431;-89
2023/04/19 00:50:04;;;;;;;12.25;11.27;;;;;;;;;;5072139;28;20434;-88
2023/04/19 00:52:32;;;;;;;11.98;10.98;;;;;;;;;;5072288;28;20375;-89
2023/04/19 00:54:58;;;;;;;11.30;10.40;;;;;;;;;;5072039;28;20415;-89
2023/04/19 00:57:24;;;;;;;12.38;11.35;;;;;;;;;;5073420;28;20404;-88
2023/04/19 00:59:51;;;;;;;11.40;10.50;;;;;;;;;;5072862;28;20376;-89
2023/04/19 01:02:17;;;;;;;11.63;10.73;;;;;;;;;;5073270;28;20402;-88
2023/04/19 01:04:43;;;;;;;12.02;11.02;;;;;;;;;;5072794;28;20483;-88
2023/04/19 01:07:09;;;;;;;11.02;10.13;;;;;;;;;;5073053;28;20490;-90
2023/04/19 01:09:39;;;;;;;10.98;10.18;;;;;;;;;;5071684;28;20799;-88
2023/04/19 01:12:05;;;;;;;11.52;10.63;;;;;;;;;;5072956;28;20497;-89
2023/04/19 01:14:31;;;;;;;11.55;10.65;;;;;;;;;;5086755;28;20384;-88
2023/04/19 01:16:57;;;;;;;11.38;10.50;;;;;;;;;;5078803;28;20380;-88
2023/04/19 01:19:23;;;;;;;10.95;10.15;;;;;;;;;;5089600;28;20382;-88
2023/04/19 01:21:51;;;;;;;10.50;9.60;;;;;;;;;;5087565;28;20431;-89
2023/04/19 01:24:17;;;;;;;10.82;10.02;;;;;;;;;;5076630;28;20402;-87
2023/04/19 01:26:45;;;;;;;11.43;10.52;;;;;;;;;;5072075;28;20450;-88
2023/04/19 01:29:11;;;;;;;11.05;10.25;;;;;;;;;;5072120;28;20444;-87
2023/04/19 01:31:37;;;;;;;11.40;10.50;;;;;;;;;;5064919;28;20864;-89
2023/04/19 01:34:03;;;;;;;11.98;10.93;;;;;;;;;;5065831;28;20396;-88
2023/04/19 01:36:29;;;;;;;12.65;11.65;;;;;;;;;;5059989;28;20388;-88
2023/04/19 01:38:56;;;;;;;14.50;13.40;;;;;;;;;;5063689;28;20383;-88
2023/04/19 01:41:25;;;;;;;14.07;12.93;;;;;;;;;;5064182;28;20819;-88
2023/04/19 01:43:51;;;;;;;16.98;15.55;;;;;;;;;;5060638;28;20484;-88
2023/04/19 01:46:17;;;;;;;17.58;16.08;;;;;;;;;;5061372;28;20403;-88
2023/04/19 01:48:43;;;;;;;19.30;17.60;;;;;;;;;;5070169;28;20372;-88
2023/04/19 01:51:09;;;;;;;18.48;16.98;;;;;;;;;;5071294;28;20888;-88
2023/04/19 01:53:35;;;;;;;19.20;17.47;;;;;;;;;;5062529;28;20388;-88
2023/04/19 01:56:01;;;;;;;19.17;17.58;;;;;;;;;;5058298;28;20388;-88
2023/04/19 01:58:27;;;;;;;18.55;16.95;;;;;;;;;;5058369;28;20749;-87
2023/04/19 02:00:53;;;;;;;18.03;16.53;;;;;;;;;;5056099;28;20380;-87
2023/04/19 02:03:19;;;;;;;17.45;15.85;;;;;;;;;;5061899;28;20399;-88
2023/04/19 02:05:45;;;;;;;16.55;15.25;;;;;;;;;;5069996;28;20391;-88
2023/04/19 02:08:11;;;;;;;15.13;13.90;;;;;;;;;;5069517;28;20383;-87
2023/04/19 02:10:37;;;;;;;14.52;13.32;;;;;;;;;;5067173;28;20372;-90
2023/04/19 02:13:03;;;;;;;14.13;13.00;;;;;;;;;;5068250;28;20384;-89
2023/04/19 02:15:29;;;;;;;14.05;12.90;;;;;;;;;;5075757;28;20817;-89
2023/04/19 02:17:55;;;;;;;13.75;12.55;;;;;;;;;;5068789;28;20383;-87
2023/04/19 02:20:22;;;;;;;13.82;12.73;;;;;;;;;;5079794;28;20411;-89
2023/04/19 02:22:48;;;;;;;14.10;12.90;;;;;;;;;;5085833;28;20431;-89
2023/04/19 02:25:15;;;;;;;13.73;12.73;;;;;;;;;;5082293;28;20392;-89
2023/04/19 02:27:41;;;;;;;14.00;12.90;;;;;;;;;;5077711;28;20407;-88
2023/04/19 02:30:07;;;;;;;14.35;13.25;;;;;;;;;;5071560;28;20371;-89
2023/04/19 02:32:33;;;;;;;14.32;13.20;;;;;;;;;;5070696;28;20376;-90
2023/04/19 02:34:59;;;;;;;14.13;13.02;;;;;;;;;;5071417;28;20380;-88
2023/04/19 02:37:25;;;;;;;13.10;12.10;;;;;;;;;;5071471;28;20459;-88
2023/04/19 02:39:51;;;;;;;14.00;12.88;;;;;;;;;;5071065;28;20433;-88
2023/04/19 02:42:17;;;;;;;14.55;13.35;;;;;;;;;;5071357;28;20383;-89
2023/04/19 02:44:43;;;;;;;14.57;13.37;;;;;;;;;;5071439;28;20868;-89
2023/04/19 02:47:09;;;;;;;13.82;12.73;;;;;;;;;;5071229;28;20411;-89
2023/04/19 02:49:40;;;;;;;14.32;13.23;;;;;;;;;;5070091;28;20718;-89
2023/04/19 02:52:06;;;;;;;13.23;12.20;;;;;;;;;;5071197;28;20376;-87
2023/04/19 02:54:32;;;;;;;13.30;12.30;;;;;;;;;;5071345;28;20388;-88
2023/04/19 02:56:58;;;;;;;13.02;12.00;;;;;;;;;;5069789;28;20383;-89
2023/04/19 02:59:25;;;;;;;13.52;12.50;;;;;;;;;;5064342;28;20384;-88
2023/04/19 03:01:51;;;;;;;12.88;11.88;;;;;;;;;;5071273;28;20379;-88
2023/04/19 03:04:17;;;;;;;12.85;11.88;;;;;;;;;;5070748;28;20410;-89
2023/04/19 03:06:43;;;;;;;13.35;12.25;;;;;;;;;;5071405;28;20877;-88
2023/04/19 03:09:09;;;;;;;12.63;11.73;;;;;;;;;;5069711;28;20398;-88
2023/04/19 03:11:37;;;;;;;12.85;11.82;;;;;;;;;;5071092;28;20375;-89
2023/04/19 03:14:03;;;;;;;12.52;11.60;;;;;;;;;;5071300;28;20377;-89
2023/04/19 03:16:29;;;;;;;12.20;11.20;;;;;;;;;;5079264;28;20945;-88
2023/04/19 03:18:55;;;;;;;12.93;11.93;;;;;;;;;;5080358;28;20387;-90
2023/04/19 03:21:25;;;;;;;13.02;12.02;;;;;;;;;;5078919;28;20375;-89
2023/04/19 03:23:51;;;;;;;12.48;11.55;;;;;;;;;;5081593;28;20379;-89
2023/04/19 03:26:18;;;;;;;12.68;11.68;;;;;;;;;;5086616;28;20401;-90
2023/04/19 03:28:44;;;;;;;12.60;11.70;;;;;;;;;;5072888;28;20375;-89
2023/04/19 03:31:10;;;;;;;12.65;11.65;;;;;;;;;;5070980;28;20379;-88
2023/04/19 03:33:36;;;;;;;12.52;11.52;;;;;;;;;;5070685;28;20372;-89
2023/04/19 03:36:02;;;;;;;12.10;11.20;;;;;;;;;;5070623;28;20853;-90
2023/04/19 03:38:28;;;;;;;12.10;11.20;;;;;;;;;;5070640;28;20384;-88
2023/04/19 03:40:56;;;;;;;12.23;11.23;;;;;;;;;;5069348;28;20383;-89
2023/04/19 03:43:23;;;;;;;12.75;11.85;;;;;;;;;;5069942;28;20428;-88
2023/04/19 03:45:49;;;;;;;11.82;10.93;;;;;;;;;;5074792;28;20385;-90
2023/04/19 03:48:15;;;;;;;12.98;11.98;;;;;;;;;;5074735;28;20372;-88
2023/04/19 03:50:41;;;;;;;11.95;11.05;;;;;;;;;;5074494;28;20378;-88
2023/04/19 03:53:07;;;;;;;11.53;10.73;;;;;;;;;;5074357;28;20387;-89
2023/04/19 03:55:33;;;;;;;11.95;11.05;;;;;;;;;;5074339;28;20463;-89
2023/04/19 03:57:59;;;;;;;13.50;12.48;;;;;;;;;;5074698;28;20394;-88
2023/04/19 04:00:26;;;;;;;11.80;10.90;;;;;;;;;;5074355;28;20470;-89
2023/04/19 04:02:52;;;;;;;11.57;10.68;;;;;;;;;;5074088;28;20409;-88
2023/04/19 04:05:18;;;;;;;11.73;10.82;;;;;;;;;;5074054;28;20412;-89
2023/04/19 04:07:44;;;;;;;10.67;9.87;;;;;;;;;;5074040;28;20931;-88
2023/04/19 04:10:10;;;;;;;10.60;9.82;;;;;;;;;;5073722;28;20372;-89
2023/04/19 04:12:36;;;;;;;11.50;10.50;;;;;;;;;;5073961;28;20451;-88
2023/04/19 04:15:02;;;;;;;11.40;10.57;;;;;;;;;;5072406;28;20714;-88
2023/04/19 04:17:28;;;;;;;10.57;9.75;;;;;;;;;;5079268;28;20417;-88
2023/04/19 04:19:54;;;;;;;10.20;9.40;;;;;;;;;;5086807;28;20921;-88
2023/04/19 04:22:20;;;;;;;10.10;9.40;;;;;;;;;;5077332;28;20453;-88
2023/04/19 04:24:48;;;;;;;9.70;9.00;;;;;;;;;;5083507;28;20474;-87
2023/04/19 04:27:19;;;;;;;9.50;8.80;;;;;;;;;;5073807;28;20961;-89
2023/04/19 04:29:44;;;;;;;9.70;9.00;;;;;;;;;;5064686;28;20401;-89
2023/04/19 04:32:13;;;;;;;9.18;8.48;;;;;;;;;;5071192;28;20860;-88
2023/04/19 04:34:39;;;;;;;9.30;8.60;;;;;;;;;;5059784;28;20427;-86
2023/04/19 04:37:07;;;;;;;8.97;8.27;;;;;;;;;;5069959;28;20382;-87
2023/04/19 04:39:37;;;;;;;9.35;8.65;;;;;;;;;;5073619;28;20379;-87
2023/04/19 04:42:06;;;;;;;9.23;8.53;;;;;;;;;;5073223;28;20371;-88
2023/04/19 04:44:33;;;;;;;9.68;8.90;;;;;;;;;;5053354;28;20389;-87
2023/04/19 04:46:59;;;;;;;9.60;8.90;;;;;;;;;;5052775;28;20398;-88
2023/04/19 04:49:25;;;;;;;9.43;8.73;;;;;;;;;;5052286;28;20742;-88
2023/04/19 04:51:51;;;;;;;9.60;8.90;;;;;;;;;;5051588;28;20855;-88
2023/04/19 04:54:17;;;;;;;9.57;8.88;;;;;;;;;;5068100;28;20379;-88
2023/04/19 04:56:43;;;;;;;10.48;9.68;;;;;;;;;;5071037;28;20396;-88
2023/04/19 04:59:09;;;;;;;10.52;9.73;;;;;;;;;;5070970;28;20465;-87
2023/04/19 05:01:35;;;;;;;10.67;9.87;;;;;;;;;;5073294;28;20389;-87
2023/04/19 05:04:01;;;;;;;11.75;10.85;;;;;;;;;;5072415;28;20419;-90
2023/04/19 05:06:27;;;;;;;11.57;10.70;;;;;;;;;;5052429;28;20991;-88
2023/04/19 05:08:53;;;;;;;11.07;10.17;;;;;;;;;;5072465;28;20405;-87
2023/04/19 05:11:20;;;;;;;11.30;10.40;;;;;;;;;;5072804;28;20372;-88
2023/04/19 05:13:46;;;;;;;11.85;10.85;;;;;;;;;;5070032;28;20384;-88
2023/04/19 05:16:12;;;;;;;12.10;11.20;;;;;;;;;;5066937;28;20394;-88
2023/04/19 05:18:38;;;;;;;11.50;10.60;;;;;;;;;;5059251;28;20751;-86
2023/04/19 05:21:05;;;;;;;10.80;10.00;;;;;;;;;;5061476;28;20393;-85
2023/04/19 05:23:31;;;;;;;11.20;10.40;;;;;;;;;;5076024;28;20398;-84
2023/04/19 05:25:57;;;;;;;11.98;11.07;;;;;;;;;;5076112;28;20851;-86
2023/04/19 05:28:23;;;;;;;11.97;11.07;;;;;;;;;;5072266;28;20449;-85
2023/04/19 05:30:49;;;;;;;11.95;10.95;;;;;;;;;;5070878;28;20392;-84
2023/04/19 05:33:15;;;;;;;12.52;11.63;;;;;;;;;;5072023;28;20391;-87
2023/04/19 05:35:41;;;;;;;11.85;10.88;;;;;;;;;;5072163;28;20413;-86
2023/04/19 05:38:07;;;;;;;12.88;11.88;;;;;;;;;;5072275;28;20390;-85
2023/04/19 05:40:34;;;;;;;11.57;10.68;;;;;;;;;;5071482;28;20388;-87
2023/04/19 05:43:00;;;;;;;11.77;10.88;;;;;;;;;;5071981;28;20386;-87
2023/04/19 05:45:26;;;;;;;10.55;9.75;;;;;;;;;;5070901;28;20836;-85
2023/04/19 05:47:52;;;;;;;10.52;9.73;;;;;;;;;;5072158;28;20415;-86
2023/04/19 05:50:19;;;;;;;11.23;10.32;;;;;;;;;;5068952;28;20467;-85
2023/04/19 05:52:45;;;;;;;11.02;10.23;;;;;;;;;;5072152;28;20864;-86
2023/04/19 05:55:12;;;;;;;11.60;10.70;;;;;;;;;;5072110;28;20376;-86
2023/04/19 05:57:38;;;;;;;11.70;10.70;;;;;;;;;;5071989;28;20376;-87
2023/04/19 06:00:04;;;;;;;12.75;11.57;;;;;;;;;;5071962;28;20926;-87
2023/04/19 06:02:30;;;;;;;14.27;13.02;;;;;;;;;;5070613;28;20486;-86
2023/04/19 06:05:02;;;;;;;15.82;14.27;;;;;;;;;;5071651;28;20485;-87
2023/04/19 06:07:28;;;;;;;12.15;11.25;;;;;;;;;;5071662;28;20408;-87
2023/04/19 06:09:55;;;;;;;12.82;11.77;;;;;;;;;;5071942;28;20434;-86
2023/04/19 06:12:21;;;;;;;13.38;12.30;;;;;;;;;;5071466;28;20372;-86
2023/04/19 06:14:47;;;;;;;15.43;14.23;;;;;;;;;;5071641;28;20383;-86
2023/04/19 06:17:15;;;;;;;13.90;12.80;;;;;;;;;;5070537;28;20379;-87
2023/04/19 06:19:41;;;;;;;14.40;13.20;;;;;;;;;;5079174;28;20385;-84
2023/04/19 06:22:07;;;;;;;12.40;11.50;;;;;;;;;;5078035;28;20385;-87
2023/04/19 06:24:33;;;;;;;12.23;11.32;;;;;;;;;;5089564;28;20386;-85
2023/04/19 06:26:59;;;;;;;11.65;10.85;;;;;;;;;;5086719;28;20403;-85
2023/04/19 06:29:25;;;;;;;10.70;9.90;;;;;;;;;;5081038;28;20376;-83
2023/04/19 06:31:52;;;;;;;10.90;10.10;;;;;;;;;;5073472;28;20415;-81
2023/04/19 06:34:18;;;;;;;11.60;10.70;;;;;;;;;;5070347;28;20465;-81
2023/04/19 06:36:44;;;;;;;11.50;10.60;;;;;;;;;;5071284;28;20392;-81
2023/04/19 06:39:10;;;;;;;11.07;10.27;;;;;;;;;;5071113;28;20383;-81
2023/04/19 06:41:36;;;;;;;11.40;10.60;;;;;;;;;;5071345;28;20406;-81
2023/04/19 06:44:02;;;;;;;11.40;10.50;;;;;;;;;;5069808;28;20414;-81
2023/04/19 06:46:28;;;;;;;11.43;10.52;;;;;;;;;;5071252;28;20407;-82
2023/04/19 06:48:54;;;;;;;11.50;10.60;;;;;;;;;;5071134;28;20380;-82
2023/04/19 06:51:20;;;;;;;12.15;11.15;;;;;;;;;;5069990;28;20392;-82
2023/04/19 06:53:46;;;;;;;12.60;11.60;;;;;;;;;;5071082;28;21041;-82
2023/04/19 06:56:13;;;;;;;12.88;11.98;;;;;;;;;;5070017;28;20463;-82
2023/04/19 06:58:39;;;;;;;12.60;11.55;;;;;;;;;;5071184;28;20399;-82
2023/04/19 07:01:05;;;;;;;12.07;10.98;;;;;;;;;;5071007;28;20487;-82
2023/04/19 07:03:31;;;;;;;12.23;11.32;;;;;;;;;;5070903;28;20392;-81
2023/04/19 07:05:57;;;;;;;11.70;10.90;;;;;;;;;;5070978;28;20745;-81
2023/04/19 07:08:24;;;;;;;12.18;11.27;;;;;;;;;;5071128;28;20384;-82
2023/04/19 07:10:50;;;;;;;11.07;10.20;;;;;;;;;;5067644;28;20400;-81
2023/04/19 07:13:16;;;;;;;11.05;10.23;;;;;;;;;;5070532;28;20421;-81
2023/04/19 07:15:42;;;;;;;11.48;10.68;;;;;;;;;;5069650;28;20417;-81
2023/04/19 07:18:10;;;;;;;11.37;10.47;;;;;;;;;;5071110;28;20457;-81
2023/04/19 07:20:36;;;;;;;11.27;10.45;;;;;;;;;;5080485;28;20397;-81
2023/04/19 07:23:02;;;;;;;11.82;11.02;;;;;;;;;;5081816;28;20737;-81
2023/04/19 07:25:28;;;;;;;11.93;11.02;;;;;;;;;;5073555;28;20846;-81
2023/04/19 07:27:55;;;;;;;12.10;11.20;;;;;;;;;;5074832;28;20495;-82
2023/04/19 07:30:21;;;;;;;12.13;11.23;;;;;;;;;;5073748;28;20376;-81
2023/04/19 07:32:47;;;;;;;11.88;10.98;;;;;;;;;;5073493;28;20854;-81
2023/04/19 07:35:13;;;;;;;11.80;10.93;;;;;;;;;;5074843;28;20376;-81
2023/04/19 07:37:39;;;;;;;12.10;11.20;;;;;;;;;;5074876;28;20512;-81
2023/04/19 07:40:05;;;;;;;13.35;12.15;;;;;;;;;;5074837;28;20387;-80
2023/04/19 07:42:31;;;;;;;12.77;11.75;;;;;;;;;;5074713;28;20887;-80
2023/04/19 07:44:58;;;;;;;11.80;10.90;;;;;;;;;;5074675;28;20433;-80
2023/04/19 07:47:24;;;;;;;12.37;11.37;;;;;;;;;;5074511;28;20868;-81
2023/04/19 07:49:55;;;;;;;12.20;11.30;;;;;;;;;;5074585;28;20372;-81
2023/04/19 07:52:21;;;;;;;12.07;11.18;;;;;;;;;;5074475;28;20376;-81
2023/04/19 07:54:47;;;;;;;12.23;11.23;;;;;;;;;;5074511;28;20387;-80
2023/04/19 07:57:13;;;;;;;12.17;11.30;;;;;;;;;;5074442;28;20383;-81
2023/04/19 07:59:40;;;;;;;12.30;11.30;;;;;;;;;;5060836;28;20888;-81
2023/04/19 08:02:06;;;;;;;13.32;12.23;;;;;;;;;;5074380;28;20437;-81
2023/04/19 08:04:32;;;;;;;13.85;12.77;;;;;;;;;;5074003;28;20848;-81
2023/04/19 08:06:58;;;;;;;14.37;13.07;;;;;;;;;;5074254;28;20515;-81
2023/04/19 08:09:24;;;;;;;14.57;13.38;;;;;;;;;;5074154;28;20376;-81
2023/04/19 08:11:52;;;;;;;19.33;17.73;;;;;;;;;;5092425;22;20760;-84
2023/04/19 08:14:18;;;;;;;17.85;16.17;;;;;;;;;;5092321;28;20382;-85
2023/04/19 08:16:44;;;;;;;17.58;16.00;;;;;;;;;;5089439;28;20390;-83
2023/04/19 08:19:10;;;;;;;15.25;13.95;;;;;;;;;;5094314;28;20435;-81
2023/04/19 08:21:36;;;;;;;14.98;13.77;;;;;;;;;;5102574;28;20427;-81
2023/04/19 08:24:02;;;;;;;15.88;14.57;;;;;;;;;;5104993;28;20444;-81
2023/04/19 08:26:28;;;;;;;14.68;13.50;;;;;;;;;;5109642;28;20768;-81
2023/04/19 08:28:54;;;;;;;15.32;14.02;;;;;;;;;;5104169;28;20434;-82
2023/04/19 08:31:20;;;;;;;14.45;13.35;;;;;;;;;;5104270;28;20436;-82
2023/04/19 08:33:46;;;;;;;15.23;14.00;;;;;;;;;;5095787;28;20374;-82
2023/04/19 08:36:12;;;;;;;14.80;13.60;;;;;;;;;;5094412;28;20382;-83
2023/04/19 08:38:40;;;;;;;15.43;14.02;;;;;;;;;;5094142;28;20378;-82
2023/04/19 08:41:06;;;;;;;23.70;21.20;;;;;;;;;;5094004;28;20374;-82
2023/04/19 08:43:35;;;;;;;17.70;16.15;;;;;;;;;;5093994;28;20374;-82
2023/04/19 08:46:02;;;;;;;17.48;15.98;;;;;;;;;;5093759;28;20774;-82
2023/04/19 08:48:29;;;;;;;21.45;19.45;;;;;;;;;;5094203;28;20453;-82
2023/04/19 08:50:55;;;;;;;21.42;19.17;;;;;;;;;;5093859;28;20381;-82
2023/04/19 08:53:22;;;;;;;18.60;16.90;;;;;;;;;;5093912;28;20728;-82
2023/04/19 08:55:49;;;;;;;17.58;15.98;;;;;;;;;;5092694;28;20886;-82
2023/04/19 08:58:15;;;;;;;21.63;19.52;;;;;;;;;;5093786;28;20773;-82
2023/04/19 09:00:41;;;;;;;20.65;18.60;;;;;;;;;;5093652;28;20770;-82
2023/04/19 09:03:07;;;;;;;19.88;18.05;;;;;;;;;;5090372;28;20386;-82
2023/04/19 09:05:33;;;;;;;20.60;18.70;;;;;;;;;;5094580;28;20497;-82
2023/04/19 09:08:18;;;;;;;21.33;19.20;;;;;;;;;;5091915;28;20813;-83
2023/04/19 09:11:02;;;;;;;20.95;18.95;;;;;;;;;;5089887;28;20747;-82
2023/04/19 09:13:29;;;;;;;20.50;18.55;;;;;;;;;;5082456;28;20870;-82
2023/04/19 09:16:03;;;;;;;20.02;18.20;;;;;;;;;;5093440;28;20370;-83
2023/04/19 09:18:29;;;;;;;18.52;16.70;;;;;;;;;;5087077;28;20384;-82
2023/04/19 09:20:59;;;;;;;19.67;17.77;;;;;;;;;;5084922;28;20922;-82
2023/04/19 09:23:26;;;;;;;19.27;17.58;;;;;;;;;;5095670;28;20409;-83
2023/04/19 09:25:59;;;;;;;18.30;16.60;;;;;;;;;;5097430;28;20381;-82
2023/04/19 09:28:26;;;;;;;18.05;16.45;;;;;;;;;;5101221;28;20400;-83
2023/04/19 09:30:53;;;;;;;18.15;16.55;;;;;;;;;;5087833;28;20372;-83
2023/04/19 09:33:37;;;;;;;19.73;17.83;;;;;;;;;;5081128;28;20404;-83
2023/04/19 09:36:03;;;;;;;19.50;17.70;;;;;;;;;;5084278;28;20374;-83
2023/04/19 09:38:29;;;;;;;19.35;17.55;;;;;;;;;;5093491;28;20403;-83
2023/04/19 09:41:13;;;;;;;19.85;17.88;;;;;;;;;;5092324;28;20848;-82
2023/04/19 09:43:40;;;;;;;19.67;17.87;;;;;;;;;;5092737;28;20362;-81
2023/04/19 09:46:06;;;;;;;19.63;17.77;;;;;;;;;;5092747;28;20370;-81
2023/04/19 09:48:32;;;;;;;21.17;19.08;;;;;;;;;;5092979;28;20381;-81
2023/04/19 09:50:59;;;;;;;21.92;19.80;;;;;;;;;;5092712;28;20373;-82
2023/04/19 09:53:26;;;;;;;21.95;19.83;;;;;;;;;;5092672;28;20381;-82
2023/04/19 09:55:52;;;;;;;20.92;19.02;;;;;;;;;;5092558;28;20382;-82
2023/04/19 09:58:20;;;;;;;20.00;18.10;;;;;;;;;;5090634;28;20609;-82
2023/04/19 10:00:46;;;;;;;19.33;17.48;;;;;;;;;;5092399;28;20469;-82
2023/04/19 10:03:14;;;;;;;18.95;17.17;;;;;;;;;;5092308;28;20377;-81
2023/04/19 10:05:41;;;;;;;18.52;16.83;;;;;;;;;;5091842;28;20374;-81
2023/04/19 10:08:07;;;;;;;17.27;15.73;;;;;;;;;;5092297;28;20759;-81
2023/04/19 10:10:33;;;;;;;18.52;16.83;;;;;;;;;;5090891;28;20883;-81
2023/04/19 10:13:01;;;;;;;18.42;16.67;;;;;;;;;;5090882;28;20402;-83
2023/04/19 10:15:28;;;;;;;19.55;17.63;;;;;;;;;;5092198;28;20388;-82
2023/04/19 10:17:54;;;;;;;20.00;18.20;;;;;;;;;;5092453;28;20781;-82
2023/04/19 10:20:26;;;;;;;18.88;17.08;;;;;;;;;;5092085;28;20386;-82
2023/04/19 10:22:52;;;;;;;18.98;17.27;;;;;;;;;;5091846;28;20397;-82
2023/04/19 10:25:18;;;;;;;18.60;16.73;;;;;;;;;;5100665;28;20384;-82
2023/04/19 10:27:45;;;;;;;18.20;16.60;;;;;;;;;;5111525;28;20408;-83
2023/04/19 10:30:18;;;;;;;18.45;16.63;;;;;;;;;;5101295;28;20794;-83
2023/04/19 10:32:45;;;;;;;18.27;16.47;;;;;;;;;;5109950;28;20367;-83
2023/04/19 10:35:28;;;;;;;17.70;16.20;;;;;;;;;;5093265;28;20378;-83
2023/04/19 10:38:03;;;;;;;19.05;17.25;;;;;;;;;;5091859;28;20431;-83
2023/04/19 10:40:48;;;;;;;17.70;16.10;;;;;;;;;;5091681;28;20418;-83
2023/04/19 10:43:15;;;;;;;18.73;17.02;;;;;;;;;;5090218;28;20893;-82
2023/04/19 10:45:41;;;;;;;18.17;16.47;;;;;;;;;;5091191;28;20894;-82
2023/04/19 10:48:37;;;;;;;17.77;16.17;;;;;;;;;;5084824;28;20411;-83
2023/04/19 10:51:18;;;;;;;18.40;16.80;;;;;;;;;;5088447;28;20374;-82
2023/04/19 10:53:44;;;;;;;17.80;16.20;;;;;;;;;;5092028;28;20382;-82
2023/04/19 10:56:10;;;;;;;17.27;15.77;;;;;;;;;;5101093;28;20799;-81
2023/04/19 10:58:55;;;;;;;17.10;15.55;;;;;;;;;;5096762;28;20420;-82
2023/04/19 11:01:36;;;;;;;17.50;15.93;;;;;;;;;;5093386;28;20374;-82
2023/04/19 11:04:03;;;;;;;16.90;15.45;;;;;;;;;;5090781;28;20376;-82
2023/04/19 11:06:29;;;;;;;16.65;15.05;;;;;;;;;;5091793;28;20406;-82
2023/04/19 11:08:56;;;;;;;16.23;14.73;;;;;;;;;;5091731;28;20461;-82
2023/04/19 11:11:24;;;;;;;16.40;14.90;;;;;;;;;;5091556;28;20401;-82
2023/04/19 11:13:50;;;;;;;16.75;15.15;;;;;;;;;;5079483;28;20737;-82
2023/04/19 11:16:16;;;;;;;17.00;15.55;;;;;;;;;;5091184;28;20936;-82
2023/04/19 11:18:43;;;;;;;16.45;14.82;;;;;;;;;;5091390;28;20915;-82
2023/04/19 11:21:17;;;;;;;17.83;16.23;;;;;;;;;;5091032;28;20470;-82
2023/04/19 11:23:43;;;;;;;16.65;15.15;;;;;;;;;;5091434;28;20375;-82
2023/04/19 11:26:13;;;;;;;15.65;14.35;;;;;;;;;;5103898;28;20369;-82
2023/04/19 11:28:39;;;;;;;16.50;15.02;;;;;;;;;;5099296;28;20787;-82
2023/04/19 11:31:05;;;;;;;15.60;14.20;;;;;;;;;;5097893;28;20403;-82
2023/04/19 11:33:35;;;;;;;15.90;14.43;;;;;;;;;;5089923;28;20386;-82
2023/04/19 11:36:01;;;;;;;15.05;13.85;;;;;;;;;;5090798;28;20378;-82
2023/04/19 11:38:27;;;;;;;15.10;13.80;;;;;;;;;;5087633;28;20374;-82
2023/04/19 11:41:00;;;;;;;13.38;12.27;;;;;;;;;;5086929;28;20450;-82
2023/04/19 11:43:36;;;;;;;11.63;10.52;;;;;;;;;;5087240;28;20374;-83
2023/04/19 11:46:06;;;;;;;10.45;9.55;;;;;;;;;;5081908;28;20458;-82
2023/04/19 11:48:32;;;;;;;10.98;9.88;;;;;;;;;;5091018;28;20511;-82
2023/04/19 11:50:59;;;;;;;15.80;14.18;;;;;;;;;;5090653;28;21116;-83
2023/04/19 11:53:26;;;;;;;35.70;24.80;;;;;;;;;;5090980;28;20374;-82
2023/04/19 11:56:03;;;;;;;9.00;8.30;;;;;;;;;;5090987;28;20384;-82
2023/04/19 11:58:31;;;;;;;9.63;8.77;;;;;;;;;;5089285;28;20396;-83
2023/04/19 12:01:08;;;;;;;26.20;17.83;;;;;;;;;;5091249;28;20385;-83
2023/04/19 12:03:35;;;;;;;10.10;9.25;;;;;;;;;;5090915;28;20390;-82
2023/04/19 12:06:02;;;;;;;9.80;9.00;;;;;;;;;;5093830;28;20499;-82
2023/04/19 12:08:55;;;;;;;9.80;9.00;;;;;;;;;;5094213;28;20390;-82
2023/04/19 12:11:25;;;;;;;10.25;9.45;;;;;;;;;;5085919;28;20374;-82
2023/04/19 12:14:10;;;;;;;10.95;10.05;;;;;;;;;;5093947;28;20461;-83
2023/04/19 12:16:37;;;;;;;11.38;10.40;;;;;;;;;;5094461;28;20386;-83
2023/04/19 12:19:16;;;;;;;10.43;9.50;;;;;;;;;;5094110;28;20378;-82
2023/04/19 12:21:43;;;;;;;11.30;10.40;;;;;;;;;;5094180;28;20370;-83
2023/04/19 12:24:10;;;;;;;13.27;11.93;;;;;;;;;;5093147;28;20872;-82
2023/04/19 12:26:36;;;;;;;18.50;15.53;;;;;;;;;;5099891;28;20491;-82
2023/04/19 12:29:03;;;;;;;10.65;9.73;;;;;;;;;;5095696;28;20465;-82
2023/04/19 12:31:31;;;;;;;12.18;11.02;;;;;;;;;;5103607;28;20368;-82
2023/04/19 12:33:57;;;;;;;12.33;11.33;;;;;;;;;;5105603;28;20757;-83
2023/04/19 12:36:23;;;;;;;11.32;10.43;;;;;;;;;;5093516;28;20382;-82
2023/04/19 12:38:49;;;;;;;10.95;9.98;;;;;;;;;;5094016;28;20390;-82
2023/04/19 12:41:15;;;;;;;11.50;10.40;;;;;;;;;;5093875;28;20776;-83
2023/04/19 12:43:41;;;;;;;12.13;11.07;;;;;;;;;;5093912;28;20386;-82
2023/04/19 12:46:07;;;;;;;10.07;9.18;;;;;;;;;;5093793;28;20394;-82
2023/04/19 12:48:33;;;;;;;11.88;10.98;;;;;;;;;;5093795;28;20389;-83
2023/04/19 12:50:59;;;;;;;9.55;8.85;;;;;;;;;;5093472;28;20378;-82
2023/04/19 12:53:25;;;;;;;9.98;9.23;;;;;;;;;;5093777;28;20515;-82
2023/04/19 12:55:51;;;;;;;8.10;7.40;;;;;;;;;;5094953;28;20751;-82
2023/04/19 12:58:17;;;;;;;7.68;7.07;;;;;;;;;;5097197;28;20382;-82
2023/04/19 13:00:44;;;;;;;8.43;7.75;;;;;;;;;;5096027;28;20378;-82
2023/04/19 13:03:11;;;;;;;8.07;7.47;;;;;;;;;;5111278;28;20404;-82
2023/04/19 13:05:37;;;;;;;8.93;8.23;;;;;;;;;;5107116;28;20870;-82
2023/04/19 13:08:03;;;;;;;8.35;7.65;;;;;;;;;;5099155;28;20417;-83
2023/04/19 13:10:29;;;;;;;8.02;7.43;;;;;;;;;;5095587;28;20393;-83
2023/04/19 13:12:55;;;;;;;8.52;7.82;;;;;;;;;;5079631;28;20884;-82
2023/04/19 13:15:21;;;;;;;8.90;8.10;;;;;;;;;;5083797;28;20402;-83
2023/04/19 13:17:47;;;;;;;8.48;7.78;;;;;;;;;;5100703;28;20389;-84
2023/04/19 13:20:13;;;;;;;9.05;8.35;;;;;;;;;;5097032;27;20378;-83
2023/04/19 13:22:39;;;;;;;8.50;7.80;;;;;;;;;;5091884;28;20386;-84
2023/04/19 13:25:05;;;;;;;8.57;7.78;;;;;;;;;;5091016;28;20557;-82
2023/04/19 13:27:31;;;;;;;9.85;8.85;;;;;;;;;;5094205;28;20416;-82
2023/04/19 13:29:57;;;;;;;8.83;8.10;;;;;;;;;;5104472;28;21150;-82
2023/04/19 13:32:23;;;;;;;9.23;8.40;;;;;;;;;;5103201;28;20378;-82
2023/04/19 13:34:49;;;;;;;8.85;8.07;;;;;;;;;;5103710;28;20378;-82
2023/04/19 13:37:15;;;;;;;9.23;8.32;;;;;;;;;;5096465;28;20863;-82
2023/04/19 13:39:42;;;;;;;18.80;8.27;;;;;;;;;;5092343;28;20412;-82
2023/04/19 13:42:08;;;;;;;36.50;9.13;;;;;;;;;;5092358;28;20858;-82
2023/04/19 13:44:34;;;;;;;8.63;7.78;;;;;;;;;;5092638;28;20378;-82
2023/04/19 13:47:00;;;;;;;8.90;8.00;;;;;;;;;;5092383;28;20401;-83
2023/04/19 13:49:26;;;;;;;9.82;8.93;;;;;;;;;;5092533;28;21063;-82
2023/04/19 13:51:52;;;;;;;9.35;8.55;;;;;;;;;;5092256;28;20571;-82
2023/04/19 13:54:18;;;;;;;9.60;8.80;;;;;;;;;;5091685;28;20393;-82
2023/04/19 13:56:44;;;;;;;9.43;8.68;;;;;;;;;;5092338;28;20449;-83
2023/04/19 13:59:10;;;;;;;10.23;9.38;;;;;;;;;;5079116;28;20378;-82
2023/04/19 14:01:36;;;;;;;8.85;8.05;;;;;;;;;;5092273;28;20724;-84
2023/04/19 14:04:02;;;;;;;8.88;8.07;;;;;;;;;;5092270;28;20390;-83
2023/04/19 14:06:28;;;;;;;9.40;8.60;;;;;;;;;;5088175;28;20431;-83
2023/04/19 14:08:55;;;;;;;10.68;9.20;;;;;;;;;;5090462;28;20377;-82
2023/04/19 14:11:22;;;;;;;10.23;9.25;;;;;;;;;;5073539;28;20379;-82
2023/04/19 14:13:48;;;;;;;8.20;7.50;;;;;;;;;;5073054;28;20360;-83
2023/04/19 14:16:14;;;;;;;9.23;8.50;;;;;;;;;;5078114;28;20445;-83
2023/04/19 14:18:40;;;;;;;8.27;7.68;;;;;;;;;;5089570;28;20718;-83
2023/04/19 14:21:06;;;;;;;7.28;6.72;;;;;;;;;;5083879;28;20372;-83